Santa Fe, New Mexico
Current Conditions -  °F | °C
As of 1:53 PM on Tuesday 21 Oct 2014 (Local Time) from KSAF Reporting Station
Overcast Overcast  
Wind Chill: 61°   Ceiling: 6500
Heat Index: 61°   Visibility: 10mi
Dew Point: 45°   Wind: 10mph
Humidity: 56%   Direction: 260°W
Pressure: 30.14"   Gusts: NA
Location:  35.69°N, 105.93°W
Report Text: KSAF 211953Z 26009KT 10SM FEW032 BKN065 OVC080 16/07 A3014 RMK AO2 SLP141 T01610072
Loading
Personal Weather Stations






























Interactive Weather Map
Tropical Storm Tracking
New forecast layout! Learn more

10-Day Weather Forecast

Advertisements
Track Severe Weather on mobile